Weather History for Jackson, MN

Change the Weather History Date:

Sunday, March 3, 2013

  Actual Average Record
Temperature  
Mean Temperature 28 °F -  
Max Temperature 32 °F 28 °F 41 °F (2005)
Min Temperature 23 °F 15 °F -5 °F (2014)
Degree Days  
Heating Degree Days 38    
Moisture  
Dew Point 22 °F    
Average Humidity 78    
Maximum Humidity 93    
Minimum Humidity 64    
Precipitation  
Precipitation 0.00 in - - ()
Sea Level Pressure  
Sea Level Pressure 29.94 in    
Wind  
Wind Speed 13 mph (SE)    
Max Wind Speed 22 mph    
Max Gust Speed 29 mph    
Visibility 9 miles    
Events Snow    
Averages and records for this station are not official NWS values.
T = Trace of Precipitation, MM = Missing Value Source: NWS Daily Summary

Daily Weather History Graph

Daily Weather History Graph

Search for Another Location

Airport:

Trip Planner

Search our weather history database for the weather conditions in past years. The results will help you decide how hot, cold, wet, or windy it might be!

Date:

Astronomy

Mar. 03, 2013 Rise Set
Actual Time 6:52 AM CST 6:11 PM CST
Civil Twilight 6:23 AM CST 6:40 PM CST
Nautical Twilight 5:50 AM CST 7:13 PM CST
Astronomical Twilight 5:17 AM CST 7:46 PM CST
Moon 12:02 AM CST (3/3) 9:56 AM CST (3/3)
Length of Visible Light 12h 16m
Length of Day
11h 18m
Waning Gibbous, 63% of the Moon is Illuminated
Mar 3
Waning Gibbous
Mar 4
Last Quarter
Mar 11
New
Mar 19
First Quarter
Mar 27
Full

Hourly Weather History & Observations

Time (CST) Temp. Windchill Dew Point Humidity Pressure Visibility Wind Dir Wind Speed Gust Speed Precip Events Conditions
12:13 AM 24.8 °F 14.0 °F 19.4 °F 80% 30.07 in 10.0 mi SSE 11.5 mph - N/A   Overcast
12:32 AM 24.8 °F 15.3 °F 19.4 °F 80% 30.07 in 10.0 mi South 9.2 mph - N/A   Overcast
12:53 AM 24.8 °F 16.1 °F 19.4 °F 80% 30.07 in 10.0 mi SSE 8.1 mph - N/A   Overcast
1:13 AM 26.6 °F 18.2 °F 19.4 °F 74% 30.07 in 10.0 mi SSE 8.1 mph - N/A   Overcast
1:32 AM 26.6 °F 18.2 °F 19.4 °F 74% 30.07 in 10.0 mi SSE 8.1 mph - N/A   Overcast
1:53 AM 26.6 °F 18.2 °F 19.4 °F 74% 30.07 in 10.0 mi SSE 8.1 mph - N/A   Overcast
2:13 AM 26.6 °F 18.2 °F 19.4 °F 74% 30.05 in 10.0 mi SSE 8.1 mph - N/A   Overcast
2:33 AM 24.8 °F 16.9 °F 19.4 °F 80% 30.04 in 10.0 mi SSE 6.9 mph - N/A   Mostly Cloudy
2:53 AM 23.0 °F 15.8 °F 19.4 °F 86% 30.03 in 10.0 mi SE 5.8 mph - N/A   Scattered Clouds
3:12 AM 23.0 °F 13.1 °F 19.4 °F 86% 30.03 in 10.0 mi SSE 9.2 mph - N/A   Clear
3:33 AM 23.0 °F 13.9 °F 19.4 °F 86% 30.02 in 10.0 mi SE 8.1 mph - N/A   Clear
3:52 AM 23.0 °F 13.9 °F 19.4 °F 86% 30.01 in 10.0 mi SE 8.1 mph - N/A   Clear
4:13 AM 23.0 °F 13.1 °F 19.4 °F 86% 30.01 in 10.0 mi SSE 9.2 mph - N/A   Scattered Clouds
4:33 AM 23.0 °F 13.1 °F 19.4 °F 86% 30.00 in 10.0 mi SE 9.2 mph - N/A   Mostly Cloudy
4:52 AM 23.0 °F 13.9 °F 19.4 °F 86% 30.01 in 10.0 mi SE 8.1 mph - N/A   Overcast
5:13 AM 23.0 °F 12.4 °F 19.4 °F 86% 30.00 in 10.0 mi SSE 10.4 mph - N/A   Overcast
5:33 AM 23.0 °F 12.4 °F 19.4 °F 86% 30.00 in 10.0 mi SSE 10.4 mph - N/A   Overcast
5:52 AM 23.0 °F 13.1 °F 19.4 °F 86% 30.00 in 10.0 mi SE 9.2 mph - N/A   Overcast
6:13 AM 23.0 °F 13.9 °F 21.2 °F 93% 30.01 in 10.0 mi SE 8.1 mph - N/A   Overcast
6:33 AM 23.0 °F 13.9 °F 19.4 °F 86% 30.00 in 10.0 mi SE 8.1 mph - N/A   Overcast
6:52 AM 23.0 °F 12.4 °F 19.4 °F 86% 30.00 in 10.0 mi SE 10.4 mph - N/A   Mostly Cloudy
7:13 AM 23.0 °F 13.1 °F 19.4 °F 86% 30.00 in 7.0 mi SE 9.2 mph - N/A   Clear
7:33 AM 23.0 °F 13.1 °F 19.4 °F 86% 30.00 in 10.0 mi SE 9.2 mph - N/A   Clear
7:52 AM 23.0 °F 13.9 °F 19.4 °F 86% 30.00 in 10.0 mi ESE 8.1 mph - N/A   Clear
8:13 AM 23.0 °F 12.4 °F 19.4 °F 86% 29.99 in 10.0 mi ESE 10.4 mph - N/A   Clear
8:33 AM 24.8 °F 12.9 °F 21.2 °F 86% 29.98 in 7.0 mi SE 13.8 mph 18.4 mph N/A   Clear
8:52 AM 26.6 °F 15.7 °F 21.2 °F 80% 29.98 in 7.0 mi SE 12.7 mph - N/A   Clear
9:13 AM 26.6 °F 15.7 °F 21.2 °F 80% 29.98 in 7.0 mi SE 12.7 mph - N/A   Clear
9:33 AM 28.4 °F 17.0 °F 21.2 °F 74% 29.98 in 7.0 mi SE 15.0 mph - N/A   Clear
9:52 AM 28.4 °F 18.0 °F 21.2 °F 74% 29.98 in 10.0 mi SE 12.7 mph - N/A   Clear
10:13 AM 28.4 °F 17.0 °F 21.2 °F 74% 29.97 in 7.0 mi SE 15.0 mph - N/A   Clear
10:32 AM 30.2 °F 19.3 °F 21.2 °F 69% 29.97 in 7.0 mi SE 15.0 mph 18.4 mph N/A   Clear
10:52 AM 30.2 °F 19.8 °F 23.0 °F 75% 29.96 in 7.0 mi SE 13.8 mph 20.7 mph N/A   Clear
11:13 AM 30.2 °F 18.1 °F 23.0 °F 75% 29.96 in 7.0 mi SE 18.4 mph - N/A   Clear
11:32 AM 32.0 °F 20.8 °F 23.0 °F 69% 29.96 in 10.0 mi SE 17.3 mph 23.0 mph N/A   Clear
11:52 AM 32.0 °F 20.8 °F 23.0 °F 69% 29.96 in 10.0 mi SE 17.3 mph 23.0 mph N/A   Clear
12:13 PM 32.0 °F 20.8 °F 23.0 °F 69% 29.95 in 10.0 mi SE 17.3 mph - N/A   Scattered Clouds
12:32 PM 32.0 °F 20.8 °F 24.8 °F 75% 29.94 in 10.0 mi SE 17.3 mph - N/A   Clear
12:52 PM 32.0 °F 20.5 °F 24.8 °F 75% 29.93 in 10.0 mi SE 18.4 mph - N/A   Clear
1:13 PM 32.0 °F 20.1 °F 24.8 °F 75% 29.92 in 10.0 mi SE 19.6 mph 24.2 mph N/A   Clear
1:32 PM 32.0 °F 20.5 °F 24.8 °F 75% 29.91 in 10.0 mi SE 18.4 mph 24.2 mph N/A   Clear
1:52 PM 32.0 °F 20.8 °F 26.6 °F 80% 29.90 in 10.0 mi SE 17.3 mph 21.9 mph N/A   Scattered Clouds
2:13 PM 32.0 °F 20.5 °F 24.8 °F 75% 29.90 in 10.0 mi SE 18.4 mph - N/A   Clear
2:32 PM 32.0 °F 20.1 °F 26.6 °F 80% 29.89 in 10.0 mi SE 19.6 mph 23.0 mph N/A   Clear
2:52 PM 32.0 °F 21.6 °F 26.6 °F 80% 29.88 in 10.0 mi SE 15.0 mph - N/A   Scattered Clouds
3:13 PM 32.0 °F 20.5 °F 24.8 °F 75% 29.88 in 10.0 mi SE 18.4 mph 23.0 mph N/A   Scattered Clouds
3:32 PM 32.0 °F 20.1 °F 24.8 °F 75% 29.87 in 10.0 mi ESE 19.6 mph 24.2 mph N/A   Clear
3:52 PM 32.0 °F 20.8 °F 23.0 °F 69% 29.87 in 10.0 mi SE 17.3 mph 23.0 mph N/A   Mostly Cloudy
4:13 PM 32.0 °F 20.5 °F 23.0 °F 69% 29.86 in 10.0 mi SE 18.4 mph 25.3 mph N/A   Overcast
4:32 PM 32.0 °F 21.2 °F 23.0 °F 69% 29.86 in 10.0 mi ESE 16.1 mph 24.2 mph N/A   Overcast
4:52 PM 32.0 °F 20.1 °F 23.0 °F 69% 29.86 in 10.0 mi SE 19.6 mph - N/A   Overcast
5:13 PM 32.0 °F 20.1 °F 21.2 °F 64% 29.86 in 10.0 mi SE 19.6 mph 25.3 mph N/A   Overcast
5:32 PM 32.0 °F 20.8 °F 23.0 °F 69% 29.86 in 10.0 mi SE 17.3 mph - N/A   Overcast
5:53 PM 30.2 °F 17.4 °F 23.0 °F 75% 29.85 in 10.0 mi ESE 20.7 mph 24.2 mph N/A   Overcast
6:33 PM 30.2 °F 17.1 °F 23.0 °F 75% 29.85 in 10.0 mi ESE 21.9 mph 25.3 mph N/A   Overcast
6:53 PM 30.2 °F 18.1 °F 23.0 °F 75% 29.86 in 10.0 mi ESE 18.4 mph 21.9 mph N/A   Overcast
7:12 PM 30.2 °F 17.4 °F 21.2 °F 69% 29.86 in 10.0 mi ESE 20.7 mph 27.6 mph N/A   Overcast
7:33 PM 28.4 °F 15.4 °F 21.2 °F 74% 29.86 in 10.0 mi ESE 19.6 mph 28.8 mph N/A   Overcast
7:53 PM 28.4 °F 15.1 °F 21.2 °F 74% 29.86 in 10.0 mi SE 20.7 mph 28.8 mph N/A   Overcast
8:12 PM 28.4 °F 15.4 °F 21.2 °F 74% 29.86 in 7.0 mi ESE 19.6 mph 27.6 mph N/A Snow Light Snow
8:33 PM 28.4 °F 14.7 °F 21.2 °F 74% 29.85 in 7.0 mi ESE 21.9 mph 27.6 mph N/A Snow Light Snow
8:53 PM 28.4 °F 15.4 °F 21.2 °F 74% 29.85 in 10.0 mi ESE 19.6 mph 26.5 mph N/A Snow Light Snow
9:12 PM 28.4 °F 16.2 °F 21.2 °F 74% 29.86 in 7.0 mi SE 17.3 mph 26.5 mph N/A Snow Light Snow
9:33 PM 28.4 °F 15.4 °F 21.2 °F 74% 29.86 in 10.0 mi SE 19.6 mph 24.2 mph N/A Snow Light Snow
9:53 PM 26.6 °F 13.4 °F 21.2 °F 80% 29.87 in 2.0 mi SE 18.4 mph 23.0 mph N/A Snow Light Snow
10:12 PM 26.6 °F 13.4 °F 21.2 °F 80% 29.87 in 1.8 mi SE 18.4 mph 24.2 mph N/A Snow Light Snow
10:33 PM 26.6 °F 13.8 °F 21.2 °F 80% 29.86 in 1.5 mi SE 17.3 mph - N/A Snow Light Snow
10:53 PM 26.6 °F 13.1 °F 23.0 °F 86% 29.85 in 1.5 mi SE 19.6 mph 25.3 mph N/A Snow Light Snow
11:12 PM 26.6 °F 12.4 °F 23.0 °F 86% 29.84 in 2.0 mi ESE 21.9 mph 26.5 mph N/A Snow Light Snow
11:33 PM 26.6 °F 12.7 °F 23.0 °F 86% 29.83 in 1.2 mi ESE 20.7 mph - N/A Snow Light Snow
11:53 PM 26.6 °F 12.4 °F 23.0 °F 86% 29.82 in 1.2 mi ESE 21.9 mph 27.6 mph N/A Snow Light Snow